sensor_id;sensor_type;location;lat;lon;timestamp;temperature;humidity
4910;DHT22;2470;49.868;8.660;2023-03-01T00:01:49;2.30;88.50
4910;DHT22;2470;49.868;8.660;2023-03-01T00:04:15;2.30;88.50
4910;DHT22;2470;49.868;8.660;2023-03-01T00:06:42;2.30;88.70
4910;DHT22;2470;49.868;8.660;2023-03-01T00:09:12;2.30;89.20
4910;DHT22;2470;49.868;8.660;2023-03-01T00:11:37;2.20;89.50
4910;DHT22;2470;49.868;8.660;2023-03-01T00:14:04;2.20;89.50
4910;DHT22;2470;49.868;8.660;2023-03-01T00:16:43;2.20;90.00
4910;DHT22;2470;49.868;8.660;2023-03-01T00:19:12;2.20;90.20
4910;DHT22;2470;49.868;8.660;2023-03-01T00:21:38;2.20;90.30
4910;DHT22;2470;49.868;8.660;2023-03-01T00:24:04;2.10;90.30
4910;DHT22;2470;49.868;8.660;2023-03-01T00:26:30;2.10;90.50
4910;DHT22;2470;49.868;8.660;2023-03-01T00:28:57;2.10;90.70
4910;DHT22;2470;49.868;8.660;2023-03-01T00:31:27;2.00;90.90
4910;DHT22;2470;49.868;8.660;2023-03-01T00:33:55;2.10;91.10
4910;DHT22;2470;49.868;8.660;2023-03-01T00:36:26;2.10;91.20
4910;DHT22;2470;49.868;8.660;2023-03-01T00:38:52;2.10;91.20
4910;DHT22;2470;49.868;8.660;2023-03-01T00:41:19;2.00;91.30
4910;DHT22;2470;49.868;8.660;2023-03-01T00:43:46;2.00;91.50
4910;DHT22;2470;49.868;8.660;2023-03-01T00:46:13;2.00;92.00
4910;DHT22;2470;49.868;8.660;2023-03-01T00:48:39;2.00;91.80
4910;DHT22;2470;49.868;8.660;2023-03-01T00:51:11;2.00;92.00
4910;DHT22;2470;49.868;8.660;2023-03-01T00:53:37;2.00;92.10
4910;DHT22;2470;49.868;8.660;2023-03-01T00:56:04;2.00;92.00
4910;DHT22;2470;49.868;8.660;2023-03-01T00:58:30;1.90;92.10
4910;DHT22;2470;49.868;8.660;2023-03-01T01:00:56;1.90;92.20
4910;DHT22;2470;49.868;8.660;2023-03-01T01:03:21;2.00;92.30
4910;DHT22;2470;49.868;8.660;2023-03-01T01:05:48;1.90;92.30
4910;DHT22;2470;49.868;8.660;2023-03-01T01:08:14;1.90;92.80
4910;DHT22;2470;49.868;8.660;2023-03-01T01:10:39;2.00;92.80
4910;DHT22;2470;49.868;8.660;2023-03-01T01:13:05;2.00;93.00
4910;DHT22;2470;49.868;8.660;2023-03-01T01:15:34;2.00;93.10
4910;DHT22;2470;49.868;8.660;2023-03-01T01:18:00;2.10;93.20
4910;DHT22;2470;49.868;8.660;2023-03-01T01:20:25;2.10;93.10
4910;DHT22;2470;49.868;8.660;2023-03-01T01:22:51;2.10;93.00
4910;DHT22;2470;49.868;8.660;2023-03-01T01:25:17;2.10;93.00
4910;DHT22;2470;49.868;8.660;2023-03-01T01:27:42;2.10;93.00
4910;DHT22;2470;49.868;8.660;2023-03-01T01:30:08;2.10;93.00
4910;DHT22;2470;49.868;8.660;2023-03-01T01:32:34;2.10;93.10
4910;DHT22;2470;49.868;8.660;2023-03-01T01:34:59;2.10;93.10
4910;DHT22;2470;49.868;8.660;2023-03-01T01:37:25;2.10;93.20
4910;DHT22;2470;49.868;8.660;2023-03-01T01:39:57;2.10;93.20
4910;DHT22;2470;49.868;8.660;2023-03-01T01:42:24;2.10;93.30
4910;DHT22;2470;49.868;8.660;2023-03-01T01:45:24;2.10;93.40
4910;DHT22;2470;49.868;8.660;2023-03-01T01:47:52;2.10;93.30
4910;DHT22;2470;49.868;8.660;2023-03-01T01:50:19;2.20;93.30
4910;DHT22;2470;49.868;8.660;2023-03-01T01:52:45;2.20;93.50
4910;DHT22;2470;49.868;8.660;2023-03-01T01:55:17;2.20;93.50
4910;DHT22;2470;49.868;8.660;2023-03-01T01:57:58;2.20;93.50
4910;DHT22;2470;49.868;8.660;2023-03-01T02:00:28;2.20;93.50
4910;DHT22;2470;49.868;8.660;2023-03-01T02:02:59;2.20;93.50
4910;DHT22;2470;49.868;8.660;2023-03-01T02:05:44;2.20;93.50
4910;DHT22;2470;49.868;8.660;2023-03-01T02:08:12;2.20;93.50
4910;DHT22;2470;49.868;8.660;2023-03-01T02:10:39;2.20;93.50
4910;DHT22;2470;49.868;8.660;2023-03-01T02:13:06;2.20;93.50
4910;DHT22;2470;49.868;8.660;2023-03-01T02:15:34;2.20;93.60
4910;DHT22;2470;49.868;8.660;2023-03-01T02:18:01;2.20;93.70
4910;DHT22;2470;49.868;8.660;2023-03-01T02:22:58;2.20;93.60
4910;DHT22;2470;49.868;8.660;2023-03-01T02:28:32;2.10;93.70
4910;DHT22;2470;49.868;8.660;2023-03-01T02:30:59;2.10;93.70
4910;DHT22;2470;49.868;8.660;2023-03-01T02:33:44;2.10;93.90
4910;DHT22;2470;49.868;8.660;2023-03-01T02:36:14;2.00;94.00
4910;DHT22;2470;49.868;8.660;2023-03-01T02:38:41;2.00;94.00
4910;DHT22;2470;49.868;8.660;2023-03-01T02:41:08;2.10;94.50
4910;DHT22;2470;49.868;8.660;2023-03-01T02:43:35;2.10;94.20
4910;DHT22;2470;49.868;8.660;2023-03-01T02:46:16;2.20;94.30
4910;DHT22;2470;49.868;8.660;2023-03-01T02:51:17;2.10;94.50
4910;DHT22;2470;49.868;8.660;2023-03-01T02:56:30;2.10;94.60
4910;DHT22;2470;49.868;8.660;2023-03-01T02:58:56;2.10;94.60
4910;DHT22;2470;49.868;8.660;2023-03-01T03:01:26;2.10;94.70
4910;DHT22;2470;49.868;8.660;2023-03-01T03:04:11;2.10;94.70
4910;DHT22;2470;49.868;8.660;2023-03-01T03:06:38;2.10;94.70
4910;DHT22;2470;49.868;8.660;2023-03-01T03:09:04;2.00;94.70
4910;DHT22;2470;49.868;8.660;2023-03-01T03:11:30;2.00;94.90
4910;DHT22;2470;49.868;8.660;2023-03-01T03:13:56;2.00;94.90
4910;DHT22;2470;49.868;8.660;2023-03-01T03:16:23;2.00;95.00
4910;DHT22;2470;49.868;8.660;2023-03-01T03:18:49;2.00;95.10
4910;DHT22;2470;49.868;8.660;2023-03-01T03:21:15;2.00;95.10
4910;DHT22;2470;49.868;8.660;2023-03-01T03:23:41;1.90;95.30
4910;DHT22;2470;49.868;8.660;2023-03-01T03:26:07;2.00;95.30
4910;DHT22;2470;49.868;8.660;2023-03-01T03:28:33;1.90;95.40
4910;DHT22;2470;49.868;8.660;2023-03-01T03:30:59;1.90;95.50
4910;DHT22;2470;49.868;8.660;2023-03-01T03:33:32;1.80;95.50
4910;DHT22;2470;49.868;8.660;2023-03-01T03:35:57;1.80;95.50
4910;DHT22;2470;49.868;8.660;2023-03-01T03:38:23;1.80;95.60
4910;DHT22;2470;49.868;8.660;2023-03-01T03:40:51;1.80;95.60
4910;DHT22;2470;49.868;8.660;2023-03-01T03:43:22;1.80;95.70
4910;DHT22;2470;49.868;8.660;2023-03-01T03:45:49;1.80;95.80
4910;DHT22;2470;49.868;8.660;2023-03-01T03:48:15;1.80;95.80
4910;DHT22;2470;49.868;8.660;2023-03-01T03:50:46;1.80;96.00
4910;DHT22;2470;49.868;8.660;2023-03-01T03:53:12;1.80;95.90
4910;DHT22;2470;49.868;8.660;2023-03-01T03:55:38;1.80;96.10
4910;DHT22;2470;49.868;8.660;2023-03-01T03:58:08;1.80;96.20
4910;DHT22;2470;49.868;8.660;2023-03-01T04:00:37;1.80;96.20
4910;DHT22;2470;49.868;8.660;2023-03-01T04:03:03;1.90;96.20
4910;DHT22;2470;49.868;8.660;2023-03-01T04:05:29;1.90;96.30
4910;DHT22;2470;49.868;8.660;2023-03-01T04:07:55;1.90;96.30
4910;DHT22;2470;49.868;8.660;2023-03-01T04:10:31;1.90;96.30
4910;DHT22;2470;49.868;8.660;2023-03-01T04:12:57;1.90;96.40
4910;DHT22;2470;49.868;8.660;2023-03-01T04:15:25;1.90;96.50
4910;DHT22;2470;49.868;8.660;2023-03-01T04:17:52;1.90;96.40
4910;DHT22;2470;49.868;8.660;2023-03-01T04:20:20;2.00;96.50
4910;DHT22;2470;49.868;8.660;2023-03-01T04:22:56;1.90;96.60
4910;DHT22;2470;49.868;8.660;2023-03-01T04:25:57;2.00;96.70
4910;DHT22;2470;49.868;8.660;2023-03-01T04:28:24;2.00;96.60
4910;DHT22;2470;49.868;8.660;2023-03-01T04:30:50;2.00;96.50
4910;DHT22;2470;49.868;8.660;2023-03-01T04:33:16;2.00;96.50
4910;DHT22;2470;49.868;8.660;2023-03-01T04:35:42;2.00;96.60
4910;DHT22;2470;49.868;8.660;2023-03-01T04:38:08;2.00;96.60
4910;DHT22;2470;49.868;8.660;2023-03-01T04:40:34;2.00;96.60
4910;DHT22;2470;49.868;8.660;2023-03-01T04:43:00;2.00;96.60
4910;DHT22;2470;49.868;8.660;2023-03-01T04:45:26;2.00;96.60
4910;DHT22;2470;49.868;8.660;2023-03-01T04:47:53;2.00;96.60
4910;DHT22;2470;49.868;8.660;2023-03-01T04:50:19;2.00;96.60
4910;DHT22;2470;49.868;8.660;2023-03-01T04:52:46;1.90;96.60
4910;DHT22;2470;49.868;8.660;2023-03-01T04:55:12;1.80;96.70
4910;DHT22;2470;49.868;8.660;2023-03-01T04:57:38;1.80;96.80
4910;DHT22;2470;49.868;8.660;2023-03-01T05:00:05;1.70;97.00
4910;DHT22;2470;49.868;8.660;2023-03-01T05:02:55;1.70;97.20
4910;DHT22;2470;49.868;8.660;2023-03-01T05:05:30;1.70;97.20
4910;DHT22;2470;49.868;8.660;2023-03-01T05:07:58;1.70;97.30
4910;DHT22;2470;49.868;8.660;2023-03-01T05:10:26;1.70;97.30
4910;DHT22;2470;49.868;8.660;2023-03-01T05:12:54;1.80;97.40
4910;DHT22;2470;49.868;8.660;2023-03-01T05:15:20;1.70;97.60
4910;DHT22;2470;49.868;8.660;2023-03-01T05:17:51;1.70;97.90
4910;DHT22;2470;49.868;8.660;2023-03-01T05:20:17;1.70;97.60
4910;DHT22;2470;49.868;8.660;2023-03-01T05:22:42;1.70;97.60
4910;DHT22;2470;49.868;8.660;2023-03-01T05:25:08;1.70;97.60
4910;DHT22;2470;49.868;8.660;2023-03-01T05:27:35;1.70;97.60
4910;DHT22;2470;49.868;8.660;2023-03-01T05:30:00;1.70;97.60
4910;DHT22;2470;49.868;8.660;2023-03-01T05:32:39;1.70;97.60
4910;DHT22;2470;49.868;8.660;2023-03-01T05:35:05;1.60;97.70
4910;DHT22;2470;49.868;8.660;2023-03-01T05:37:31;1.70;97.70
4910;DHT22;2470;49.868;8.660;2023-03-01T05:39:56;1.60;97.70
4910;DHT22;2470;49.868;8.660;2023-03-01T05:42:22;1.70;97.80
4910;DHT22;2470;49.868;8.660;2023-03-01T05:44:47;1.70;97.80
4910;DHT22;2470;49.868;8.660;2023-03-01T05:47:13;1.70;97.70
4910;DHT22;2470;49.868;8.660;2023-03-01T05:49:38;1.70;97.60
4910;DHT22;2470;49.868;8.660;2023-03-01T05:52:04;1.70;97.60
4910;DHT22;2470;49.868;8.660;2023-03-01T05:54:29;1.70;97.60
4910;DHT22;2470;49.868;8.660;2023-03-01T05:56:55;1.80;97.70
4910;DHT22;2470;49.868;8.660;2023-03-01T05:59:21;1.70;97.60
4910;DHT22;2470;49.868;8.660;2023-03-01T06:01:47;1.70;97.70
4910;DHT22;2470;49.868;8.660;2023-03-01T06:04:12;1.70;97.70
4910;DHT22;2470;49.868;8.660;2023-03-01T06:06:38;1.70;97.90
4910;DHT22;2470;49.868;8.660;2023-03-01T06:09:05;1.70;97.80
4910;DHT22;2470;49.868;8.660;2023-03-01T06:11:33;1.70;97.70
4910;DHT22;2470;49.868;8.660;2023-03-01T06:13:59;1.70;97.80
4910;DHT22;2470;49.868;8.660;2023-03-01T06:16:24;1.80;97.90
4910;DHT22;2470;49.868;8.660;2023-03-01T06:18:50;1.80;97.80
4910;DHT22;2470;49.868;8.660;2023-03-01T06:21:15;1.90;97.90
4910;DHT22;2470;49.868;8.660;2023-03-01T06:23:41;1.90;97.80
4910;DHT22;2470;49.868;8.660;2023-03-01T06:26:07;2.00;97.70
4910;DHT22;2470;49.868;8.660;2023-03-01T06:28:33;2.00;97.60
4910;DHT22;2470;49.868;8.660;2023-03-01T06:30:59;2.10;97.60
4910;DHT22;2470;49.868;8.660;2023-03-01T06:33:24;2.20;97.40
4910;DHT22;2470;49.868;8.660;2023-03-01T06:35:51;2.10;97.30
4910;DHT22;2470;49.868;8.660;2023-03-01T06:38:16;2.10;97.30
4910;DHT22;2470;49.868;8.660;2023-03-01T06:40:44;2.10;97.40
4910;DHT22;2470;49.868;8.660;2023-03-01T06:43:10;2.20;97.30
4910;DHT22;2470;49.868;8.660;2023-03-01T06:45:37;2.20;97.10
4910;DHT22;2470;49.868;8.660;2023-03-01T06:48:04;2.20;97.10
4910;DHT22;2470;49.868;8.660;2023-03-01T06:50:29;2.30;97.00
4910;DHT22;2470;49.868;8.660;2023-03-01T06:52:56;2.30;96.90
4910;DHT22;2470;49.868;8.660;2023-03-01T06:55:22;2.30;96.90
4910;DHT22;2470;49.868;8.660;2023-03-01T06:57:47;2.30;97.10
4910;DHT22;2470;49.868;8.660;2023-03-01T07:00:13;2.40;96.80
4910;DHT22;2470;49.868;8.660;2023-03-01T07:02:39;2.40;96.70
4910;DHT22;2470;49.868;8.660;2023-03-01T07:05:05;2.50;96.70
4910;DHT22;2470;49.868;8.660;2023-03-01T07:07:30;2.50;96.50
4910;DHT22;2470;49.868;8.660;2023-03-01T07:09:56;2.50;96.30
4910;DHT22;2470;49.868;8.660;2023-03-01T07:12:21;2.50;96.30
4910;DHT22;2470;49.868;8.660;2023-03-01T07:14:47;2.50;96.30
4910;DHT22;2470;49.868;8.660;2023-03-01T07:17:12;2.60;96.30
4910;DHT22;2470;49.868;8.660;2023-03-01T07:19:38;2.60;96.20
4910;DHT22;2470;49.868;8.660;2023-03-01T07:22:04;2.70;96.00
4910;DHT22;2470;49.868;8.660;2023-03-01T07:24:29;2.70;95.80
4910;DHT22;2470;49.868;8.660;2023-03-01T07:26:55;2.80;95.60
4910;DHT22;2470;49.868;8.660;2023-03-01T07:29:20;2.80;95.50
4910;DHT22;2470;49.868;8.660;2023-03-01T07:31:46;2.90;95.50
4910;DHT22;2470;49.868;8.660;2023-03-01T07:34:12;3.00;95.30
4910;DHT22;2470;49.868;8.660;2023-03-01T07:36:38;3.00;95.20
4910;DHT22;2470;49.868;8.660;2023-03-01T07:39:04;3.00;95.20
4910;DHT22;2470;49.868;8.660;2023-03-01T07:41:30;3.00;95.10
4910;DHT22;2470;49.868;8.660;2023-03-01T07:43:55;3.10;94.90
4910;DHT22;2470;49.868;8.660;2023-03-01T07:46:21;3.10;94.80
4910;DHT22;2470;49.868;8.660;2023-03-01T07:48:47;3.10;94.60
4910;DHT22;2470;49.868;8.660;2023-03-01T07:51:13;3.20;94.90
4910;DHT22;2470;49.868;8.660;2023-03-01T07:53:38;3.20;94.60
4910;DHT22;2470;49.868;8.660;2023-03-01T07:56:07;3.20;94.40
4910;DHT22;2470;49.868;8.660;2023-03-01T07:58:38;3.30;94.40
4910;DHT22;2470;49.868;8.660;2023-03-01T08:01:05;3.40;94.40
4910;DHT22;2470;49.868;8.660;2023-03-01T08:03:31;3.40;94.30
4910;DHT22;2470;49.868;8.660;2023-03-01T08:05:59;3.50;94.00
4910;DHT22;2470;49.868;8.660;2023-03-01T08:08:25;3.50;93.80
4910;DHT22;2470;49.868;8.660;2023-03-01T08:10:51;3.50;93.60
4910;DHT22;2470;49.868;8.660;2023-03-01T08:13:16;3.60;93.60
4910;DHT22;2470;49.868;8.660;2023-03-01T08:15:48;3.60;93.50
4910;DHT22;2470;49.868;8.660;2023-03-01T08:18:13;3.50;93.20
4910;DHT22;2470;49.868;8.660;2023-03-01T08:20:39;3.60;93.20
4910;DHT22;2470;49.868;8.660;2023-03-01T08:23:04;3.60;93.00
4910;DHT22;2470;49.868;8.660;2023-03-01T08:25:30;3.60;92.90
4910;DHT22;2470;49.868;8.660;2023-03-01T08:27:55;3.70;92.90
4910;DHT22;2470;49.868;8.660;2023-03-01T08:30:20;3.70;92.70
4910;DHT22;2470;49.868;8.660;2023-03-01T08:32:49;3.80;92.50
4910;DHT22;2470;49.868;8.660;2023-03-01T08:35:14;3.70;92.50
4910;DHT22;2470;49.868;8.660;2023-03-01T08:37:40;3.70;92.40
4910;DHT22;2470;49.868;8.660;2023-03-01T08:40:06;3.80;92.40
4910;DHT22;2470;49.868;8.660;2023-03-01T08:42:34;3.80;92.40
4910;DHT22;2470;49.868;8.660;2023-03-01T08:44:59;3.90;92.40
4910;DHT22;2470;49.868;8.660;2023-03-01T08:47:24;3.90;92.30
4910;DHT22;2470;49.868;8.660;2023-03-01T08:49:51;4.00;92.20
4910;DHT22;2470;49.868;8.660;2023-03-01T08:52:18;4.00;92.10
4910;DHT22;2470;49.868;8.660;2023-03-01T08:54:44;4.00;91.90
4910;DHT22;2470;49.868;8.660;2023-03-01T08:57:09;4.20;92.00
4910;DHT22;2470;49.868;8.660;2023-03-01T08:59:35;4.10;92.00
4910;DHT22;2470;49.868;8.660;2023-03-01T09:02:03;4.10;91.70
4910;DHT22;2470;49.868;8.660;2023-03-01T09:04:29;4.10;91.50
4910;DHT22;2470;49.868;8.660;2023-03-01T09:06:55;4.10;91.40
4910;DHT22;2470;49.868;8.660;2023-03-01T09:09:20;4.10;91.40
4910;DHT22;2470;49.868;8.660;2023-03-01T09:11:46;4.20;91.60
4910;DHT22;2470;49.868;8.660;2023-03-01T09:14:12;4.20;91.50
4910;DHT22;2470;49.868;8.660;2023-03-01T09:16:38;4.30;91.30
4910;DHT22;2470;49.868;8.660;2023-03-01T09:19:05;4.40;91.30
4910;DHT22;2470;49.868;8.660;2023-03-01T09:21:31;4.40;91.10
4910;DHT22;2470;49.868;8.660;2023-03-01T09:23:57;4.40;91.10
4910;DHT22;2470;49.868;8.660;2023-03-01T09:26:23;4.40;91.20
4910;DHT22;2470;49.868;8.660;2023-03-01T09:28:52;4.50;91.20
4910;DHT22;2470;49.868;8.660;2023-03-01T09:31:20;4.50;91.00
4910;DHT22;2470;49.868;8.660;2023-03-01T09:33:47;4.50;91.00
4910;DHT22;2470;49.868;8.660;2023-03-01T09:36:16;4.60;91.10
4910;DHT22;2470;49.868;8.660;2023-03-01T09:38:42;4.60;90.90
4910;DHT22;2470;49.868;8.660;2023-03-01T09:43:50;4.70;91.00
4910;DHT22;2470;49.868;8.660;2023-03-01T09:46:22;4.80;90.80
4910;DHT22;2470;49.868;8.660;2023-03-01T09:49:02;4.90;90.20
4910;DHT22;2470;49.868;8.660;2023-03-01T09:51:32;4.90;90.20
4910;DHT22;2470;49.868;8.660;2023-03-01T09:53:59;4.90;89.90
4910;DHT22;2470;49.868;8.660;2023-03-01T09:56:41;5.00;89.70
4910;DHT22;2470;49.868;8.660;2023-03-01T09:59:30;5.00;89.40
4910;DHT22;2470;49.868;8.660;2023-03-01T10:02:17;5.10;89.20
4910;DHT22;2470;49.868;8.660;2023-03-01T10:04:51;5.10;88.60
4910;DHT22;2470;49.868;8.660;2023-03-01T10:10:06;5.20;88.30
4910;DHT22;2470;49.868;8.660;2023-03-01T10:12:39;5.30;88.00
4910;DHT22;2470;49.868;8.660;2023-03-01T10:15:18;5.40;87.30
4910;DHT22;2470;49.868;8.660;2023-03-01T10:17:58;5.40;87.20
4910;DHT22;2470;49.868;8.660;2023-03-01T10:20:32;5.50;86.70
4910;DHT22;2470;49.868;8.660;2023-03-01T10:22:59;5.50;85.90
4910;DHT22;2470;49.868;8.660;2023-03-01T10:28:25;5.70;84.40
4910;DHT22;2470;49.868;8.660;2023-03-01T10:30:51;5.80;83.60
4910;DHT22;2470;49.868;8.660;2023-03-01T10:33:26;5.80;83.60
4910;DHT22;2470;49.868;8.660;2023-03-01T10:35:52;5.90;83.20
4910;DHT22;2470;49.868;8.660;2023-03-01T10:38:18;6.00;82.10
4910;DHT22;2470;49.868;8.660;2023-03-01T10:40:54;6.10;81.60
4910;DHT22;2470;49.868;8.660;2023-03-01T10:43:23;6.10;81.10
4910;DHT22;2470;49.868;8.660;2023-03-01T10:45:49;6.10;80.90
4910;DHT22;2470;49.868;8.660;2023-03-01T10:48:24;6.20;80.90
4910;DHT22;2470;49.868;8.660;2023-03-01T10:51:14;6.30;80.20
4910;DHT22;2470;49.868;8.660;2023-03-01T10:53:47;6.40;80.10
4910;DHT22;2470;49.868;8.660;2023-03-01T10:56:15;6.40;79.50
4910;DHT22;2470;49.868;8.660;2023-03-01T10:59:04;6.50;79.50
4910;DHT22;2470;49.868;8.660;2023-03-01T11:01:34;6.60;78.90
4910;DHT22;2470;49.868;8.660;2023-03-01T11:04:13;6.70;77.70
4910;DHT22;2470;49.868;8.660;2023-03-01T11:06:40;6.80;77.30
4910;DHT22;2470;49.868;8.660;2023-03-01T11:09:15;6.90;77.40
4910;DHT22;2470;49.868;8.660;2023-03-01T11:11:41;6.90;77.20
4910;DHT22;2470;49.868;8.660;2023-03-01T11:14:15;7.00;76.40
4910;DHT22;2470;49.868;8.660;2023-03-01T11:16:44;7.00;76.60
4910;DHT22;2470;49.868;8.660;2023-03-01T11:21:41;7.20;75.00
4910;DHT22;2470;49.868;8.660;2023-03-01T11:24:13;7.20;74.00
4910;DHT22;2470;49.868;8.660;2023-03-01T11:26:42;7.20;73.20
4910;DHT22;2470;49.868;8.660;2023-03-01T11:29:35;7.20;73.40
4910;DHT22;2470;49.868;8.660;2023-03-01T11:32:05;7.30;73.10
4910;DHT22;2470;49.868;8.660;2023-03-01T11:34:38;7.50;71.70
4910;DHT22;2470;49.868;8.660;2023-03-01T11:37:21;7.60;71.30
4910;DHT22;2470;49.868;8.660;2023-03-01T11:40:15;7.50;70.90
4910;DHT22;2470;49.868;8.660;2023-03-01T11:42:54;7.70;70.80
4910;DHT22;2470;49.868;8.660;2023-03-01T11:45:24;7.80;70.20
4910;DHT22;2470;49.868;8.660;2023-03-01T11:47:56;7.90;69.60
4910;DHT22;2470;49.868;8.660;2023-03-01T11:53:09;8.20;70.80
4910;DHT22;2470;49.868;8.660;2023-03-01T11:56:11;8.30;71.70
4910;DHT22;2470;49.868;8.660;2023-03-01T11:59:17;8.50;71.80
4910;DHT22;2470;49.868;8.660;2023-03-01T12:04:37;8.80;70.10
4910;DHT22;2470;49.868;8.660;2023-03-01T12:10:14;9.10;66.90
4910;DHT22;2470;49.868;8.660;2023-03-01T12:21:49;9.80;66.80
4910;DHT22;2470;49.868;8.660;2023-03-01T12:33:12;12.50;59.50
4910;DHT22;2470;49.868;8.660;2023-03-01T12:36:10;13.10;56.90
4910;DHT22;2470;49.868;8.660;2023-03-01T12:39:03;13.50;55.40
4910;DHT22;2470;49.868;8.660;2023-03-01T12:44:24;14.90;51.80
4910;DHT22;2470;49.868;8.660;2023-03-01T12:49:38;15.80;47.30
4910;DHT22;2470;49.868;8.660;2023-03-01T12:52:15;16.30;46.40
4910;DHT22;2470;49.868;8.660;2023-03-01T12:54:41;16.60;45.60
4910;DHT22;2470;49.868;8.660;2023-03-01T12:57:30;17.00;44.50
4910;DHT22;2470;49.868;8.660;2023-03-01T13:03:06;18.00;41.40
4910;DHT22;2470;49.868;8.660;2023-03-01T13:10:50;19.70;38.60
4910;DHT22;2470;49.868;8.660;2023-03-01T13:13:22;20.50;37.30
4910;DHT22;2470;49.868;8.660;2023-03-01T13:15:48;21.50;36.40
4910;DHT22;2470;49.868;8.660;2023-03-01T13:23:31;23.70;33.50
4910;DHT22;2470;49.868;8.660;2023-03-01T13:26:10;25.10;31.10
4910;DHT22;2470;49.868;8.660;2023-03-01T13:36:46;28.30;27.40
4910;DHT22;2470;49.868;8.660;2023-03-01T13:39:39;28.70;27.00
4910;DHT22;2470;49.868;8.660;2023-03-01T13:42:35;29.30;26.20
4910;DHT22;2470;49.868;8.660;2023-03-01T13:45:13;29.90;25.70
4910;DHT22;2470;49.868;8.660;2023-03-01T13:47:41;30.20;25.40
4910;DHT22;2470;49.868;8.660;2023-03-01T13:50:17;30.40;24.80
4910;DHT22;2470;49.868;8.660;2023-03-01T13:55:51;30.90;24.10
4910;DHT22;2470;49.868;8.660;2023-03-01T13:58:23;31.00;23.80
4910;DHT22;2470;49.868;8.660;2023-03-01T14:01:02;31.20;23.50
4910;DHT22;2470;49.868;8.660;2023-03-01T14:03:30;31.70;23.30
4910;DHT22;2470;49.868;8.660;2023-03-01T14:08:26;32.50;22.60
4910;DHT22;2470;49.868;8.660;2023-03-01T14:11:27;32.60;22.30
4910;DHT22;2470;49.868;8.660;2023-03-01T14:15:00;32.90;22.30
4910;DHT22;2470;49.868;8.660;2023-03-01T14:17:29;33.40;22.00
4910;DHT22;2470;49.868;8.660;2023-03-01T14:19:59;33.40;21.40
4910;DHT22;2470;49.868;8.660;2023-03-01T14:22:35;33.00;21.60
4910;DHT22;2470;49.868;8.660;2023-03-01T14:25:17;32.30;21.70
4910;DHT22;2470;49.868;8.660;2023-03-01T14:27:44;31.10;21.70
4910;DHT22;2470;49.868;8.660;2023-03-01T14:30:14;29.10;22.50
4910;DHT22;2470;49.868;8.660;2023-03-01T14:32:41;27.80;23.10
4910;DHT22;2470;49.868;8.660;2023-03-01T14:35:21;26.30;23.50
4910;DHT22;2470;49.868;8.660;2023-03-01T14:37:46;24.30;24.60
4910;DHT22;2470;49.868;8.660;2023-03-01T14:40:25;23.20;25.40
4910;DHT22;2470;49.868;8.660;2023-03-01T14:42:52;22.30;25.80
4910;DHT22;2470;49.868;8.660;2023-03-01T14:45:19;21.60;26.50
4910;DHT22;2470;49.868;8.660;2023-03-01T14:47:45;21.10;27.00
4910;DHT22;2470;49.868;8.660;2023-03-01T14:50:30;20.80;27.20
4910;DHT22;2470;49.868;8.660;2023-03-01T14:52:59;20.60;27.30
4910;DHT22;2470;49.868;8.660;2023-03-01T14:55:46;20.40;27.70
4910;DHT22;2470;49.868;8.660;2023-03-01T14:58:15;21.10;27.80
4910;DHT22;2470;49.868;8.660;2023-03-01T15:01:01;22.30;27.30
4910;DHT22;2470;49.868;8.660;2023-03-01T15:06:01;22.90;27.30
4910;DHT22;2470;49.868;8.660;2023-03-01T15:08:27;24.00;26.60
4910;DHT22;2470;49.868;8.660;2023-03-01T15:11:05;24.10;26.30
4910;DHT22;2470;49.868;8.660;2023-03-01T15:13:33;24.50;26.40
4910;DHT22;2470;49.868;8.660;2023-03-01T15:16:19;24.70;26.10
4910;DHT22;2470;49.868;8.660;2023-03-01T15:18:52;24.00;26.10
4910;DHT22;2470;49.868;8.660;2023-03-01T15:21:27;22.50;26.40
4910;DHT22;2470;49.868;8.660;2023-03-01T15:24:06;21.00;27.30
4910;DHT22;2470;49.868;8.660;2023-03-01T15:26:45;19.20;28.20
4910;DHT22;2470;49.868;8.660;2023-03-01T15:29:17;18.50;29.20
4910;DHT22;2470;49.868;8.660;2023-03-01T15:31:55;18.20;29.70
4910;DHT22;2470;49.868;8.660;2023-03-01T15:34:43;17.50;29.90
4910;DHT22;2470;49.868;8.660;2023-03-01T15:37:47;16.50;30.60
4910;DHT22;2470;49.868;8.660;2023-03-01T15:40:27;15.80;31.70
4910;DHT22;2470;49.868;8.660;2023-03-01T15:43:04;15.10;32.20
4910;DHT22;2470;49.868;8.660;2023-03-01T15:45:32;14.60;32.90
4910;DHT22;2470;49.868;8.660;2023-03-01T15:48:04;14.10;33.40
4910;DHT22;2470;49.868;8.660;2023-03-01T15:50:36;13.80;33.80
4910;DHT22;2470;49.868;8.660;2023-03-01T15:53:07;13.80;34.60
4910;DHT22;2470;49.868;8.660;2023-03-01T15:55:34;13.70;34.50
4910;DHT22;2470;49.868;8.660;2023-03-01T15:58:10;13.30;34.90
4910;DHT22;2470;49.868;8.660;2023-03-01T16:00:37;13.10;35.30
4910;DHT22;2470;49.868;8.660;2023-03-01T16:03:04;12.90;36.00
4910;DHT22;2470;49.868;8.660;2023-03-01T16:05:32;12.70;36.10
4910;DHT22;2470;49.868;8.660;2023-03-01T16:07:58;12.40;36.50
4910;DHT22;2470;49.868;8.660;2023-03-01T16:10:24;12.10;36.70
4910;DHT22;2470;49.868;8.660;2023-03-01T16:12:51;11.80;37.10
4910;DHT22;2470;49.868;8.660;2023-03-01T16:15:23;11.50;37.70
4910;DHT22;2470;49.868;8.660;2023-03-01T16:17:49;11.40;38.30
4910;DHT22;2470;49.868;8.660;2023-03-01T16:20:15;11.80;38.50
4910;DHT22;2470;49.868;8.660;2023-03-01T16:22:42;12.10;38.30
4910;DHT22;2470;49.868;8.660;2023-03-01T16:25:09;12.10;38.10
4910;DHT22;2470;49.868;8.660;2023-03-01T16:27:35;12.20;37.90
4910;DHT22;2470;49.868;8.660;2023-03-01T16:30:01;11.90;37.80
4910;DHT22;2470;49.868;8.660;2023-03-01T16:32:27;11.50;38.40
4910;DHT22;2470;49.868;8.660;2023-03-01T16:34:52;11.10;38.90
4910;DHT22;2470;49.868;8.660;2023-03-01T16:37:18;10.70;39.60
4910;DHT22;2470;49.868;8.660;2023-03-01T16:39:44;10.50;40.30
4910;DHT22;2470;49.868;8.660;2023-03-01T16:42:09;10.20;40.70
4910;DHT22;2470;49.868;8.660;2023-03-01T16:44:35;10.00;41.30
4910;DHT22;2470;49.868;8.660;2023-03-01T16:47:00;9.80;42.70
4910;DHT22;2470;49.868;8.660;2023-03-01T16:49:26;9.70;43.30
4910;DHT22;2470;49.868;8.660;2023-03-01T16:51:53;9.60;43.60
4910;DHT22;2470;49.868;8.660;2023-03-01T16:54:19;9.40;43.70
4910;DHT22;2470;49.868;8.660;2023-03-01T16:56:44;9.30;44.30
4910;DHT22;2470;49.868;8.660;2023-03-01T16:59:10;9.20;44.50
4910;DHT22;2470;49.868;8.660;2023-03-01T17:01:36;9.10;44.90
4910;DHT22;2470;49.868;8.660;2023-03-01T17:04:06;9.00;45.10
4910;DHT22;2470;49.868;8.660;2023-03-01T17:06:32;8.90;45.60
4910;DHT22;2470;49.868;8.660;2023-03-01T17:08:58;8.80;46.00
4910;DHT22;2470;49.868;8.660;2023-03-01T17:11:24;8.70;46.10
4910;DHT22;2470;49.868;8.660;2023-03-01T17:13:50;8.60;46.50
4910;DHT22;2470;49.868;8.660;2023-03-01T17:16:18;8.50;46.80
4910;DHT22;2470;49.868;8.660;2023-03-01T17:18:44;8.40;47.00
4910;DHT22;2470;49.868;8.660;2023-03-01T17:21:11;8.40;47.40
4910;DHT22;2470;49.868;8.660;2023-03-01T17:23:38;8.30;47.70
4910;DHT22;2470;49.868;8.660;2023-03-01T17:26:04;8.20;48.00
4910;DHT22;2470;49.868;8.660;2023-03-01T17:28:32;8.10;48.10
4910;DHT22;2470;49.868;8.660;2023-03-01T17:31:03;8.10;48.40
4910;DHT22;2470;49.868;8.660;2023-03-01T17:33:30;8.00;48.90
4910;DHT22;2470;49.868;8.660;2023-03-01T17:35:56;7.90;48.90
4910;DHT22;2470;49.868;8.660;2023-03-01T17:38:22;7.90;49.30
4910;DHT22;2470;49.868;8.660;2023-03-01T17:40:47;7.90;49.60
4910;DHT22;2470;49.868;8.660;2023-03-01T17:43:14;7.80;49.60
4910;DHT22;2470;49.868;8.660;2023-03-01T17:45:40;7.80;49.80
4910;DHT22;2470;49.868;8.660;2023-03-01T17:48:09;7.70;50.60
4910;DHT22;2470;49.868;8.660;2023-03-01T17:50:37;7.70;50.20
4910;DHT22;2470;49.868;8.660;2023-03-01T17:53:05;7.60;50.30
4910;DHT22;2470;49.868;8.660;2023-03-01T17:55:37;7.60;50.50